Time;durP1;ratioP1;P1;durP2;ratioP2;P2;SDS_P1;SDS_P2;PMS_P1;PMS_P2;Temp;Humidity;BMP_temperature;BMP_pressure;BME280_temperature;BME280_humidity;BME280_pressure;Samples;Min_cycle;Max_cycle;Signal;HPM_P1;HPM_P2
2022/04/01 00:01:01;;;;;;;;;;;8.60;99.90;;;;;;5113948;28;19911;-44
2022/04/01 00:03:26;;;;;;;;;;;8.50;99.90;;;;;;5113712;28;19999;-43
2022/04/01 00:05:52;;;;;;;;;;;8.30;99.90;;;;;;5113806;28;19973;-48
2022/04/01 00:08:17;;;;;;;;;;;8.20;99.90;;;;;;5113891;28;20371;-45
2022/04/01 00:10:43;;;;;;;;;;;7.90;99.90;;;;;;5114226;28;19915;-44
2022/04/01 00:13:08;;;;;;;;;;;7.60;99.90;;;;;;5113779;28;19908;-44
2022/04/01 00:15:34;;;;;;;;;;;7.50;99.90;;;;;;5114520;28;19988;-45
2022/04/01 00:18:00;;;;;;;;;;;7.30;99.90;;;;;;5117957;28;19919;-47
2022/04/01 00:20:27;;;;;;;;;;;7.20;99.90;;;;;;5118144;28;19953;-45
2022/04/01 00:22:53;;;;;;;;;;;7.20;99.90;;;;;;5117946;28;19912;-46
2022/04/01 00:25:19;;;;;;;;;;;7.30;99.90;;;;;;5118081;28;19961;-45
2022/04/01 00:27:44;;;;;;;;;;;7.40;99.90;;;;;;5117525;28;19912;-48
2022/04/01 00:30:10;;;;;;;;;;;7.40;99.90;;;;;;5117607;28;19908;-46
2022/04/01 00:32:35;;;;;;;;;;;7.40;99.90;;;;;;5118104;28;19915;-49
2022/04/01 00:35:02;;;;;;;;;;;7.50;99.90;;;;;;5117669;28;19915;-49
2022/04/01 00:37:28;;;;;;;;;;;7.50;99.90;;;;;;5117312;28;19908;-50
2022/04/01 00:39:53;;;;;;;;;;;7.50;99.90;;;;;;5117300;28;19912;-47
2022/04/01 00:42:19;;;;;;;;;;;7.40;99.90;;;;;;5117160;28;19915;-47
2022/04/01 00:44:44;;;;;;;;;;;7.40;99.90;;;;;;5117500;28;20362;-46
2022/04/01 00:47:11;;;;;;;;;;;7.30;99.90;;;;;;5117416;28;20258;-46
2022/04/01 00:49:37;;;;;;;;;;;7.40;99.90;;;;;;5117304;28;19964;-46
2022/04/01 00:52:04;;;;;;;;;;;7.50;99.90;;;;;;5117038;28;19915;-44
2022/04/01 00:54:30;;;;;;;;;;;7.40;99.90;;;;;;5117239;28;19911;-43
2022/04/01 00:56:56;;;;;;;;;;;7.40;99.90;;;;;;5117247;28;20350;-47
2022/04/01 00:59:22;;;;;;;;;;;7.30;99.90;;;;;;5117124;28;19911;-45
2022/04/01 01:01:49;;;;;;;;;;;7.40;99.90;;;;;;5117017;28;19919;-44
2022/04/01 01:04:15;;;;;;;;;;;7.40;99.90;;;;;;5116758;28;20032;-45
2022/04/01 01:06:42;;;;;;;;;;;7.40;99.90;;;;;;5116718;28;20277;-49
2022/04/01 01:09:08;;;;;;;;;;;7.40;99.90;;;;;;5115590;28;19918;-47
2022/04/01 01:11:37;;;;;;;;;;;7.40;99.90;;;;;;5116734;28;19934;-44
2022/04/01 01:14:03;;;;;;;;;;;7.50;99.90;;;;;;5115307;28;19907;-47
2022/04/01 01:16:29;;;;;;;;;;;7.50;99.90;;;;;;5116659;28;19908;-46
2022/04/01 01:18:59;;;;;;;;;;;7.50;99.90;;;;;;5116620;28;19951;-43
2022/04/01 01:21:26;;;;;;;;;;;7.50;99.90;;;;;;5116516;28;19985;-44
2022/04/01 01:23:51;;;;;;;;;;;7.50;99.90;;;;;;5115277;28;19934;-47
2022/04/01 01:26:18;;;;;;;;;;;7.50;99.90;;;;;;5116100;28;19908;-43
2022/04/01 01:28:44;;;;;;;;;;;7.50;99.90;;;;;;5116541;28;19908;-43
2022/04/01 01:31:09;;;;;;;;;;;7.60;99.90;;;;;;5116057;28;20405;-46
2022/04/01 01:33:35;;;;;;;;;;;7.60;99.90;;;;;;5116117;28;19908;-46
2022/04/01 01:36:00;;;;;;;;;;;7.50;99.90;;;;;;5116294;28;20403;-46
2022/04/01 01:38:26;;;;;;;;;;;7.40;99.90;;;;;;5116370;28;19914;-43
2022/04/01 01:40:53;;;;;;;;;;;7.40;99.90;;;;;;5116426;28;19923;-45
2022/04/01 01:43:19;;;;;;;;;;;7.40;99.90;;;;;;5116254;28;20081;-45
2022/04/01 01:45:45;;;;;;;;;;;7.50;99.90;;;;;;5115783;28;19908;-44
2022/04/01 01:48:10;;;;;;;;;;;7.50;99.90;;;;;;5116090;28;19912;-45
2022/04/01 01:56:05;;;;;;;;;;;7.50;99.90;;;;;;5116067;28;20273;-45
2022/04/01 01:58:30;;;;;;;;;;;7.50;99.90;;;;;;5116143;28;19907;-48
2022/04/01 02:00:56;;;;;;;;;;;7.40;99.90;;;;;;5115802;28;20377;-44
2022/04/01 02:03:21;;;;;;;;;;;7.50;99.90;;;;;;5115516;28;19926;-46
2022/04/01 02:05:50;;;;;;;;;;;7.30;99.90;;;;;;5115469;28;19933;-48
2022/04/01 02:08:15;;;;;;;;;;;7.40;99.90;;;;;;5115457;28;19908;-44
2022/04/01 02:10:41;;;;;;;;;;;7.40;99.90;;;;;;5115330;28;19908;-43
2022/04/01 02:13:06;;;;;;;;;;;7.40;99.90;;;;;;5115296;28;19930;-46
2022/04/01 02:15:32;;;;;;;;;;;7.40;99.90;;;;;;5115601;28;19923;-45
2022/04/01 02:17:58;;;;;;;;;;;7.40;99.90;;;;;;5115193;28;19907;-49
2022/04/01 02:20:25;;;;;;;;;;;7.20;99.90;;;;;;5115489;28;19915;-43
2022/04/01 02:22:53;;;;;;;;;;;7.00;99.90;;;;;;5115110;28;19919;-44
2022/04/01 02:25:19;;;;;;;;;;;6.70;99.90;;;;;;5115067;28;19953;-44
2022/04/01 02:27:44;;;;;;;;;;;6.70;99.90;;;;;;5115412;28;19908;-47
2022/04/01 02:30:10;;;;;;;;;;;6.50;99.90;;;;;;5115372;28;19958;-47
2022/04/01 02:32:39;;;;;;;;;;;6.50;99.90;;;;;;5114942;28;19958;-44
2022/04/01 02:35:05;;;;;;;;;;;6.40;99.90;;;;;;5115043;28;19935;-43
2022/04/01 02:37:31;;;;;;;;;;;6.40;99.90;;;;;;5114726;28;19962;-45
2022/04/01 02:39:56;;;;;;;;;;;6.10;99.90;;;;;;5114900;28;19908;-46
2022/04/01 02:42:22;;;;;;;;;;;6.10;99.90;;;;;;5114811;28;19912;-43
2022/04/01 02:44:47;;;;;;;;;;;6.20;99.90;;;;;;5115016;28;19919;-46
2022/04/01 02:47:13;;;;;;;;;;;6.20;99.90;;;;;;5114533;28;19908;-45
2022/04/01 02:49:38;;;;;;;;;;;6.20;99.90;;;;;;5113414;28;19908;-44
2022/04/01 02:52:05;;;;;;;;;;;6.20;99.90;;;;;;5114558;28;19908;-44
2022/04/01 02:54:33;;;;;;;;;;;6.10;99.90;;;;;;5114912;28;19908;-46
2022/04/01 02:56:59;;;;;;;;;;;6.10;99.90;;;;;;5114529;28;19996;-47
2022/04/01 02:59:25;;;;;;;;;;;6.10;99.90;;;;;;5114815;28;19955;-46
2022/04/01 03:01:51;;;;;;;;;;;5.90;99.90;;;;;;5114746;28;19965;-43
2022/04/01 03:04:17;;;;;;;;;;;5.80;99.90;;;;;;5114471;28;19912;-44
2022/04/01 03:06:43;;;;;;;;;;;5.90;99.90;;;;;;5114352;28;19908;-44
2022/04/01 03:09:11;;;;;;;;;;;5.80;99.90;;;;;;5114622;28;20313;-46
2022/04/01 03:11:37;;;;;;;;;;;5.80;99.90;;;;;;5114196;28;19934;-46
2022/04/01 03:14:03;;;;;;;;;;;5.80;99.90;;;;;;5114194;28;19907;-48
2022/04/01 03:16:29;;;;;;;;;;;5.80;99.90;;;;;;5114545;28;19908;-45
2022/04/01 03:18:57;;;;;;;;;;;5.80;99.90;;;;;;5114438;28;19961;-45
2022/04/01 03:21:24;;;;;;;;;;;5.80;99.90;;;;;;5114419;28;19923;-45
2022/04/01 03:23:50;;;;;;;;;;;5.70;99.90;;;;;;5114103;28;20031;-47
2022/04/01 03:26:15;;;;;;;;;;;5.70;99.90;;;;;;5114395;28;20355;-44
2022/04/01 03:28:41;;;;;;;;;;;5.50;99.90;;;;;;5114073;28;19908;-46
2022/04/01 03:31:09;;;;;;;;;;;5.60;99.90;;;;;;5114193;28;19920;-49
2022/04/01 03:33:35;;;;;;;;;;;5.50;99.90;;;;;;5114206;28;19908;-46
2022/04/01 03:36:01;;;;;;;;;;;5.40;99.90;;;;;;5114397;28;19955;-44
2022/04/01 03:38:27;;;;;;;;;;;5.50;99.90;;;;;;5114618;28;19908;-45
2022/04/01 03:40:53;;;;;;;;;;;5.40;99.90;;;;;;5113835;28;19915;-44
2022/04/01 03:43:20;;;;;;;;;;;5.30;99.90;;;;;;5113878;28;19911;-45
2022/04/01 03:45:48;;;;;;;;;;;5.40;99.90;;;;;;5114218;28;19934;-47
2022/04/01 03:48:20;;;;;;;;;;;5.20;99.90;;;;;;5113720;28;19983;-44
2022/04/01 03:50:49;;;;;;;;;;;5.40;99.90;;;;;;5117159;28;19984;-47
2022/04/01 03:53:16;;;;;;;;;;;5.30;99.90;;;;;;5118077;28;20347;-47
2022/04/01 03:55:45;;;;;;;;;;;5.30;99.90;;;;;;5117992;28;19908;-44
2022/04/01 03:58:14;;;;;;;;;;;5.30;99.90;;;;;;5118183;28;19908;-46
2022/04/01 04:00:42;;;;;;;;;;;5.20;99.90;;;;;;5117815;28;20303;-48
2022/04/01 04:03:09;;;;;;;;;;;5.20;99.90;;;;;;5117756;28;19951;-45
2022/04/01 04:05:36;;;;;;;;;;;5.10;99.90;;;;;;5117688;28;19999;-49
2022/04/01 04:08:03;;;;;;;;;;;5.10;99.90;;;;;;5118040;28;20254;-47
2022/04/01 04:10:30;;;;;;;;;;;5.30;99.90;;;;;;5117616;28;19908;-47
2022/04/01 04:12:57;;;;;;;;;;;5.10;99.90;;;;;;5117995;28;19915;-44
2022/04/01 04:15:26;;;;;;;;;;;5.10;99.90;;;;;;5117480;28;19912;-47
2022/04/01 04:17:54;;;;;;;;;;;5.00;99.90;;;;;;5118029;28;19999;-44
2022/04/01 04:20:19;;;;;;;;;;;5.00;99.90;;;;;;5117934;28;19925;-46
2022/04/01 04:22:55;;;;;;;;;;;5.00;99.90;;;;;;5117735;28;19977;-45
2022/04/01 04:25:22;;;;;;;;;;;4.90;99.90;;;;;;5117268;28;20273;-47
2022/04/01 04:27:57;;;;;;;;;;;4.90;99.90;;;;;;5117593;28;19985;-45
2022/04/01 04:30:27;;;;;;;;;;;4.70;99.90;;;;;;5117288;28;20312;-44
2022/04/01 04:33:01;;;;;;;;;;;4.70;99.90;;;;;;5117244;28;19907;-48
2022/04/01 04:35:28;;;;;;;;;;;4.80;99.90;;;;;;5117385;28;19914;-45
2022/04/01 04:37:55;;;;;;;;;;;4.70;99.90;;;;;;5117396;28;19908;-47
2022/04/01 04:40:21;;;;;;;;;;;4.80;99.90;;;;;;5117211;28;20362;-44
2022/04/01 04:42:50;;;;;;;;;;;4.60;99.90;;;;;;5116058;28;19957;-44
2022/04/01 04:45:19;;;;;;;;;;;4.50;99.90;;;;;;5116968;28;19917;-44
2022/04/01 04:47:45;;;;;;;;;;;4.50;99.90;;;;;;5117166;28;20060;-46
2022/04/01 04:50:11;;;;;;;;;;;4.40;99.90;;;;;;5117102;28;19954;-44
2022/04/01 04:52:38;;;;;;;;;;;4.20;99.90;;;;;;5116934;28;20429;-44
2022/04/01 04:55:07;;;;;;;;;;;4.20;99.90;;;;;;5117100;28;19915;-43
2022/04/01 04:57:33;;;;;;;;;;;4.20;99.90;;;;;;5116891;28;19912;-44
2022/04/01 05:00:00;;;;;;;;;;;4.10;99.90;;;;;;5116748;28;20350;-45
2022/04/01 05:02:44;;;;;;;;;;;3.90;99.90;;;;;;5115491;28;19919;-45
2022/04/01 05:05:15;;;;;;;;;;;3.80;99.90;;;;;;5116902;28;20362;-45
2022/04/01 05:07:53;;;;;;;;;;;3.80;99.90;;;;;;5116203;28;19908;-45
2022/04/01 05:10:29;;;;;;;;;;;3.70;99.90;;;;;;5116413;28;19907;-46
2022/04/01 05:12:55;;;;;;;;;;;3.80;99.90;;;;;;5116529;28;20403;-44
2022/04/01 05:15:28;;;;;;;;;;;3.80;99.90;;;;;;5116441;28;20002;-45
2022/04/01 05:17:53;;;;;;;;;;;3.80;99.90;;;;;;5116154;28;20330;-46
2022/04/01 05:20:33;;;;;;;;;;;3.80;99.90;;;;;;5115993;28;19963;-47
2022/04/01 05:23:06;;;;;;;;;;;3.90;99.90;;;;;;5116072;28;19918;-47
2022/04/01 05:25:44;;;;;;;;;;;4.00;99.90;;;;;;5116139;28;19908;-47
2022/04/01 05:28:23;;;;;;;;;;;4.00;99.90;;;;;;5116150;28;20011;-46
2022/04/01 05:31:10;;;;;;;;;;;3.90;99.90;;;;;;5116004;28;19952;-46
2022/04/01 05:33:40;;;;;;;;;;;4.00;99.90;;;;;;5105079;28;19919;-47
2022/04/01 05:36:07;;;;;;;;;;;4.00;99.90;;;;;;5114486;28;19937;-50
2022/04/01 05:38:34;;;;;;;;;;;3.80;99.90;;;;;;5115639;28;19954;-44
2022/04/01 05:41:00;;;;;;;;;;;3.90;99.90;;;;;;5115194;28;20468;-45
2022/04/01 05:43:28;;;;;;;;;;;3.80;99.90;;;;;;5115550;28;20362;-50
2022/04/01 05:45:55;;;;;;;;;;;3.80;99.90;;;;;;5114227;28;19994;-49
2022/04/01 05:48:21;;;;;;;;;;;3.90;99.90;;;;;;5115606;28;19908;-46
2022/04/01 05:50:46;;;;;;;;;;;3.70;99.90;;;;;;5115041;28;19999;-46
2022/04/01 05:53:14;;;;;;;;;;;3.70;99.90;;;;;;5115650;28;19953;-45
2022/04/01 05:55:40;;;;;;;;;;;3.80;99.90;;;;;;5115585;28;20036;-47
2022/04/01 05:58:06;;;;;;;;;;;3.80;99.90;;;;;;5115432;28;19908;-44
2022/04/01 06:00:44;;;;;;;;;;;3.90;99.90;;;;;;5115119;28;19908;-44
2022/04/01 06:03:09;;;;;;;;;;;3.80;99.90;;;;;;5114949;28;19923;-45
2022/04/01 06:05:48;;;;;;;;;;;3.70;99.90;;;;;;5115169;28;20239;-46
2022/04/01 06:08:23;;;;;;;;;;;3.90;99.90;;;;;;5115215;28;19908;-44
2022/04/01 06:11:07;;;;;;;;;;;3.90;99.90;;;;;;5114148;28;19918;-45
2022/04/01 06:13:45;;;;;;;;;;;4.00;99.90;;;;;;5113611;28;19908;-46
2022/04/01 06:16:15;;;;;;;;;;;4.00;99.90;;;;;;5114861;28;19914;-47
2022/04/01 06:18:50;;;;;;;;;;;3.90;99.90;;;;;;5114768;28;19915;-46
2022/04/01 06:21:20;;;;;;;;;;;3.70;99.90;;;;;;5114686;28;20409;-46
2022/04/01 06:23:49;;;;;;;;;;;3.90;99.90;;;;;;5113512;28;20370;-45
2022/04/01 06:26:14;;;;;;;;;;;3.90;99.90;;;;;;5114963;28;19994;-47
2022/04/01 06:28:48;;;;;;;;;;;3.90;99.90;;;;;;5114178;28;20038;-43
2022/04/01 06:31:15;;;;;;;;;;;4.10;99.90;;;;;;5114580;28;20263;-47
2022/04/01 06:33:49;;;;;;;;;;;4.10;99.90;;;;;;5113907;28;19907;-46
2022/04/01 06:36:18;;;;;;;;;;;4.00;99.90;;;;;;5114458;28;19915;-47
2022/04/01 06:38:54;;;;;;;;;;;3.90;99.90;;;;;;5114160;28;20389;-44
2022/04/01 06:41:21;;;;;;;;;;;4.00;99.90;;;;;;5114349;28;20374;-47
2022/04/01 06:43:47;;;;;;;;;;;4.00;99.90;;;;;;5114281;28;19965;-44
2022/04/01 06:46:12;;;;;;;;;;;3.90;99.90;;;;;;5114917;28;20353;-46
2022/04/01 06:48:38;;;;;;;;;;;3.90;99.90;;;;;;5114132;28;19941;-47
2022/04/01 06:51:03;;;;;;;;;;;3.90;99.90;;;;;;5114318;28;19965;-44
2022/04/01 06:53:29;;;;;;;;;;;3.90;99.90;;;;;;5114410;28;19947;-47
2022/04/01 06:55:54;;;;;;;;;;;3.90;99.90;;;;;;5114219;28;19908;-46
2022/04/01 06:58:21;;;;;;;;;;;4.00;99.90;;;;;;5114699;28;19915;-46
2022/04/01 07:00:46;;;;;;;;;;;4.00;99.90;;;;;;5113770;28;20340;-48
2022/04/01 07:03:12;;;;;;;;;;;4.00;99.90;;;;;;5113866;28;19975;-44
2022/04/01 07:05:38;;;;;;;;;;;4.10;99.90;;;;;;5114375;28;20277;-44
2022/04/01 07:08:04;;;;;;;;;;;4.20;99.90;;;;;;5113962;28;19912;-46
2022/04/01 07:10:30;;;;;;;;;;;4.20;99.90;;;;;;5114086;28;19915;-44
2022/04/01 07:12:56;;;;;;;;;;;4.30;99.90;;;;;;5113618;28;19931;-45
2022/04/01 07:15:21;;;;;;;;;;;4.00;99.90;;;;;;5113930;28;19930;-44
2022/04/01 07:17:47;;;;;;;;;;;4.10;99.90;;;;;;5114567;28;19908;-45
2022/04/01 07:20:13;;;;;;;;;;;4.30;99.90;;;;;;5112522;28;19918;-46
2022/04/01 07:22:40;;;;;;;;;;;4.40;99.90;;;;;;5113835;28;19912;-45
2022/04/01 07:25:12;;;;;;;;;;;4.50;99.90;;;;;;5113418;28;19916;-47
2022/04/01 07:27:38;;;;;;;;;;;4.50;99.90;;;;;;5114122;28;20396;-46
2022/04/01 07:30:08;;;;;;;;;;;4.50;99.90;;;;;;5113548;28;19927;-43
2022/04/01 07:32:34;;;;;;;;;;;4.40;99.90;;;;;;5113968;28;19908;-49
2022/04/01 07:35:01;;;;;;;;;;;4.30;99.90;;;;;;5113630;28;19950;-44
2022/04/01 07:37:27;;;;;;;;;;;4.40;99.90;;;;;;5113562;28;19915;-46
2022/04/01 07:39:54;;;;;;;;;;;4.40;99.90;;;;;;5113437;28;19908;-44
2022/04/01 07:42:21;;;;;;;;;;;4.60;99.90;;;;;;5113258;28;20294;-48
2022/04/01 07:44:50;;;;;;;;;;;4.60;99.90;;;;;;5113396;28;19912;-45
2022/04/01 07:47:18;;;;;;;;;;;4.50;99.90;;;;;;5113472;28;19914;-45
2022/04/01 07:49:44;;;;;;;;;;;4.50;99.90;;;;;;5113198;28;20354;-48
2022/04/01 07:52:10;;;;;;;;;;;4.70;99.90;;;;;;5113376;28;19919;-45
2022/04/01 07:54:37;;;;;;;;;;;4.70;99.90;;;;;;5113370;28;20259;-46
2022/04/01 07:57:04;;;;;;;;;;;4.70;99.90;;;;;;5112669;28;19908;-45
2022/04/01 07:59:29;;;;;;;;;;;4.60;99.90;;;;;;5112984;28;20383;-45
2022/04/01 08:01:55;;;;;;;;;;;4.80;99.90;;;;;;5113369;28;19938;-45
2022/04/01 08:04:20;;;;;;;;;;;4.70;99.90;;;;;;5113486;28;19934;-47
2022/04/01 08:06:46;;;;;;;;;;;4.70;99.90;;;;;;5113429;28;19915;-46
2022/04/01 08:09:11;;;;;;;;;;;4.70;99.90;;;;;;5113738;28;20361;-46
2022/04/01 08:11:37;;;;;;;;;;;4.70;99.90;;;;;;5113696;28;20010;-44
2022/04/01 08:14:02;;;;;;;;;;;4.70;99.90;;;;;;5113318;28;19961;-45
2022/04/01 08:16:28;;;;;;;;;;;4.70;99.90;;;;;;5113000;28;19915;-46
2022/04/01 08:18:54;;;;;;;;;;;4.80;99.90;;;;;;5113322;28;19965;-46
2022/04/01 08:21:19;;;;;;;;;;;4.90;99.90;;;;;;5113415;28;20350;-44
2022/04/01 08:23:45;;;;;;;;;;;4.80;99.90;;;;;;5113303;28;19958;-46
2022/04/01 08:26:11;;;;;;;;;;;4.80;99.90;;;;;;5111968;28;20376;-46
2022/04/01 08:28:37;;;;;;;;;;;4.80;99.90;;;;;;5113304;28;19915;-48
2022/04/01 08:31:03;;;;;;;;;;;4.80;99.90;;;;;;5111808;28;19920;-47
2022/04/01 08:33:28;;;;;;;;;;;4.80;99.90;;;;;;5113492;28;20403;-48
2022/04/01 08:35:54;;;;;;;;;;;4.80;99.90;;;;;;5112945;28;19907;-44
2022/04/01 08:38:20;;;;;;;;;;;4.90;99.90;;;;;;5115525;28;19912;-45
2022/04/01 08:40:45;;;;;;;;;;;4.80;99.90;;;;;;5116969;28;19916;-45
2022/04/01 08:43:11;;;;;;;;;;;4.90;99.90;;;;;;5116820;28;19916;-48
2022/04/01 08:45:37;;;;;;;;;;;5.00;99.90;;;;;;5116718;28;19907;-46
2022/04/01 08:48:04;;;;;;;;;;;5.00;99.90;;;;;;5116736;28;19908;-46
2022/04/01 08:50:30;;;;;;;;;;;5.00;99.90;;;;;;5116881;28;19999;-44
2022/04/01 08:52:55;;;;;;;;;;;5.10;99.90;;;;;;5117001;28;19907;-46
2022/04/01 08:55:21;;;;;;;;;;;5.40;99.90;;;;;;5116789;28;19914;-46
2022/04/01 08:57:46;;;;;;;;;;;5.50;99.90;;;;;;5116276;28;20273;-44
2022/04/01 09:00:15;;;;;;;;;;;5.50;99.90;;;;;;5115169;28;19998;-46
2022/04/01 09:02:41;;;;;;;;;;;5.20;99.90;;;;;;5116485;28;19966;-44
2022/04/01 09:05:07;;;;;;;;;;;5.40;99.90;;;;;;5115971;28;19912;-47
2022/04/01 09:07:32;;;;;;;;;;;5.30;99.90;;;;;;5116218;28;19948;-44
2022/04/01 09:10:02;;;;;;;;;;;5.60;99.90;;;;;;5116324;28;19960;-44
2022/04/01 09:12:29;;;;;;;;;;;5.70;99.90;;;;;;5116608;28;19914;-47
2022/04/01 09:14:55;;;;;;;;;;;5.60;99.90;;;;;;5116482;28;19908;-47
2022/04/01 09:17:20;;;;;;;;;;;5.50;99.90;;;;;;5115051;28;19912;-44
2022/04/01 09:19:46;;;;;;;;;;;5.90;99.90;;;;;;5116199;28;19908;-44
2022/04/01 09:22:15;;;;;;;;;;;5.90;99.90;;;;;;5114462;28;20354;-48
2022/04/01 09:24:58;;;;;;;;;;;6.50;99.90;;;;;;5116350;28;19912;-45
2022/04/01 09:27:42;;;;;;;;;;;6.30;99.90;;;;;;5115868;28;19931;-45
2022/04/01 09:30:10;;;;;;;;;;;6.30;99.90;;;;;;5115687;28;19911;-45
2022/04/01 09:32:39;;;;;;;;;;;6.30;99.90;;;;;;5116110;28;19937;-48
2022/04/01 09:35:05;;;;;;;;;;;6.20;99.90;;;;;;5116053;28;19908;-49
2022/04/01 09:37:45;;;;;;;;;;;6.20;99.90;;;;;;5115728;28;19908;-48
2022/04/01 09:40:12;;;;;;;;;;;5.70;99.90;;;;;;5115801;28;20346;-48
2022/04/01 09:42:38;;;;;;;;;;;5.60;99.90;;;;;;5114401;28;19919;-49
2022/04/01 09:45:04;;;;;;;;;;;5.60;99.90;;;;;;5115955;28;20243;-47
2022/04/01 09:47:38;;;;;;;;;;;5.30;99.90;;;;;;5115218;28;19918;-44
2022/04/01 09:50:11;;;;;;;;;;;5.20;99.90;;;;;;5115613;28;19912;-47
2022/04/01 09:52:37;;;;;;;;;;;5.00;99.90;;;;;;5115604;28;19930;-46
2022/04/01 09:55:03;;;;;;;;;;;5.00;99.90;;;;;;5115464;28;20349;-46
2022/04/01 09:57:29;;;;;;;;;;;5.20;99.90;;;;;;5115099;28;19907;-45
2022/04/01 09:59:55;;;;;;;;;;;5.20;99.90;;;;;;5115634;28;19916;-46
2022/04/01 10:02:20;;;;;;;;;;;5.20;99.90;;;;;;5115362;28;19912;-47
2022/04/01 10:04:46;;;;;;;;;;;5.20;99.90;;;;;;5115453;28;19912;-47
2022/04/01 10:07:12;;;;;;;;;;;5.20;99.90;;;;;;5113762;28;20019;-45
2022/04/01 10:09:39;;;;;;;;;;;4.90;99.90;;;;;;5115104;28;19952;-49
2022/04/01 10:12:09;;;;;;;;;;;4.90;99.90;;;;;;5114849;28;19931;-45
2022/04/01 10:14:35;;;;;;;;;;;5.00;99.90;;;;;;5114896;28;19953;-46
2022/04/01 10:17:01;;;;;;;;;;;4.80;99.90;;;;;;5113605;28;20393;-47
2022/04/01 10:19:30;;;;;;;;;;;4.90;99.90;;;;;;5115021;28;19994;-48
2022/04/01 10:21:56;;;;;;;;;;;4.90;99.90;;;;;;5114737;28;19911;-45
2022/04/01 10:24:27;;;;;;;;;;;4.90;99.90;;;;;;5114337;28;19919;-48
2022/04/01 10:27:07;;;;;;;;;;;5.00;99.90;;;;;;5113587;28;19999;-43
2022/04/01 10:29:33;;;;;;;;;;;4.90;99.90;;;;;;5114890;28;20006;-45
2022/04/01 10:32:17;;;;;;;;;;;5.00;99.90;;;;;;5113184;28;19920;-44
2022/04/01 10:34:46;;;;;;;;;;;5.10;99.90;;;;;;5114327;28;19954;-46
2022/04/01 10:37:14;;;;;;;;;;;5.20;99.90;;;;;;5113949;28;20007;-45
2022/04/01 10:39:50;;;;;;;;;;;5.00;99.90;;;;;;5114205;28;19908;-46
2022/04/01 10:42:16;;;;;;;;;;;4.90;99.90;;;;;;5114320;28;19911;-44
2022/04/01 10:44:51;;;;;;;;;;;5.00;99.90;;;;;;5114196;28;19994;-46
2022/04/01 10:47:17;;;;;;;;;;;5.00;99.90;;;;;;5113995;28;19991;-46
2022/04/01 10:52:27;;;;;;;;;;;5.40;99.90;;;;;;5113755;28;20361;-47
2022/04/01 10:55:07;;;;;;;;;;;5.30;99.90;;;;;;5114313;28;19951;-46
2022/04/01 10:57:37;;;;;;;;;;;4.90;99.90;;;;;;5113754;28;19908;-45
2022/04/01 11:00:07;;;;;;;;;;;4.80;99.90;;;;;;5111792;28;19907;-43
2022/04/01 11:02:33;;;;;;;;;;;4.80;99.90;;;;;;5113981;28;19972;-46
2022/04/01 11:05:00;;;;;;;;;;;5.00;99.90;;;;;;5112073;28;19919;-45
2022/04/01 11:07:25;;;;;;;;;;;5.00;99.90;;;;;;5113160;28;19951;-45
2022/04/01 11:09:52;;;;;;;;;;;5.10;99.90;;;;;;5113082;28;20354;-47
2022/04/01 11:12:18;;;;;;;;;;;5.30;99.90;;;;;;5113612;28;20326;-47
2022/04/01 11:15:16;;;;;;;;;;;5.40;99.90;;;;;;5113155;28;20298;-45
2022/04/01 11:17:45;;;;;;;;;;;5.10;99.90;;;;;;5113371;28;19908;-45
2022/04/01 11:20:12;;;;;;;;;;;4.90;99.90;;;;;;5113049;28;19947;-44
2022/04/01 11:22:37;;;;;;;;;;;5.20;99.90;;;;;;5112867;28;20008;-45
2022/04/01 11:25:07;;;;;;;;;;;5.10;99.90;;;;;;5113009;28;20277;-47
2022/04/01 11:27:35;;;;;;;;;;;5.10;99.90;;;;;;5113097;28;20468;-48
2022/04/01 11:30:08;;;;;;;;;;;5.20;99.90;;;;;;5113217;28;19943;-46
2022/04/01 11:32:35;;;;;;;;;;;5.50;99.90;;;;;;5113551;28;19908;-47
2022/04/01 11:35:01;;;;;;;;;;;5.60;99.90;;;;;;5113661;28;20022;-46
2022/04/01 11:37:27;;;;;;;;;;;5.80;99.90;;;;;;5113363;28;19947;-45
2022/04/01 11:39:52;;;;;;;;;;;6.00;99.90;;;;;;5113335;28;19953;-48
2022/04/01 11:42:18;;;;;;;;;;;6.20;99.90;;;;;;5113299;28;19912;-48
2022/04/01 11:44:54;;;;;;;;;;;6.30;99.90;;;;;;5112931;28;19943;-44
2022/04/01 11:47:32;;;;;;;;;;;6.10;99.90;;;;;;5112382;28;19933;-45
2022/04/01 11:50:05;;;;;;;;;;;5.60;99.90;;;;;;5113594;28;19998;-46
2022/04/01 11:52:41;;;;;;;;;;;6.10;99.90;;;;;;5112152;28;20014;-45
2022/04/01 11:55:13;;;;;;;;;;;5.90;99.90;;;;;;5113393;28;19908;-44
2022/04/01 11:57:39;;;;;;;;;;;5.70;99.90;;;;;;5113592;28;19912;-46
2022/04/01 12:00:10;;;;;;;;;;;5.60;99.90;;;;;;5112130;28;19915;-45
2022/04/01 12:02:36;;;;;;;;;;;5.50;99.90;;;;;;5113500;28;20014;-47
2022/04/01 12:05:02;;;;;;;;;;;5.60;99.90;;;;;;5113465;28;19962;-44
2022/04/01 12:10:19;;;;;;;;;;;5.10;99.90;;;;;;5113200;28;19918;-47
2022/04/01 12:13:00;;;;;;;;;;;5.10;99.90;;;;;;5116918;28;19915;-45
2022/04/01 12:15:33;;;;;;;;;;;5.30;99.90;;;;;;5116959;28;19908;-46
2022/04/01 12:18:00;;;;;;;;;;;5.40;99.90;;;;;;5116768;28;20011;-46
2022/04/01 12:20:28;;;;;;;;;;;5.50;99.90;;;;;;5115882;28;19908;-44
2022/04/01 12:23:03;;;;;;;;;;;5.50;99.90;;;;;;5115867;28;19912;-48
2022/04/01 12:25:29;;;;;;;;;;;5.30;99.90;;;;;;5116338;28;20040;-47
2022/04/01 12:27:57;;;;;;;;;;;5.20;99.90;;;;;;5116952;28;19915;-47
2022/04/01 12:30:36;;;;;;;;;;;5.00;99.90;;;;;;5114949;28;20327;-45
2022/04/01 12:33:17;;;;;;;;;;;5.00;99.90;;;;;;5117034;28;19908;-44
2022/04/01 12:35:54;;;;;;;;;;;4.90;99.90;;;;;;5116771;28;20250;-45
2022/04/01 12:38:20;;;;;;;;;;;4.80;99.90;;;;;;5115280;28;19919;-45
2022/04/01 12:40:45;;;;;;;;;;;5.00;99.90;;;;;;5098111;28;19908;-46
2022/04/01 12:43:46;;;;;;;;;;;5.10;99.90;;;;;;5116467;28;19965;-45
2022/04/01 12:46:13;;;;;;;;;;;5.30;99.90;;;;;;5053506;28;19909;-46
2022/04/01 12:48:59;;;;;;;;;;;5.40;99.90;;;;;;5103604;28;20003;-50
2022/04/01 12:51:26;;;;;;;;;;;5.10;99.90;;;;;;5115484;28;19919;-44
2022/04/01 12:54:02;;;;;;;;;;;4.90;99.90;;;;;;5115829;28;19960;-49
2022/04/01 12:56:29;;;;;;;;;;;5.00;99.90;;;;;;5115975;28;19932;-43
2022/04/01 12:58:56;;;;;;;;;;;5.00;99.90;;;;;;5116074;28;19907;-46
2022/04/01 13:01:29;;;;;;;;;;;5.00;99.90;;;;;;5116457;28;20305;-46
2022/04/01 13:03:56;;;;;;;;;;;5.00;99.90;;;;;;5114805;28;19915;-46
2022/04/01 13:06:25;;;;;;;;;;;5.10;99.90;;;;;;5116061;28;19915;-44
2022/04/01 13:09:07;;;;;;;;;;;5.20;99.90;;;;;;5115766;28;19956;-45
2022/04/01 13:11:38;;;;;;;;;;;5.10;99.90;;;;;;5115915;28;20333;-44
2022/04/01 13:14:05;;;;;;;;;;;5.30;99.90;;;;;;5115869;28;19908;-44
2022/04/01 13:16:34;;;;;;;;;;;5.10;99.90;;;;;;5114002;28;19912;-44
2022/04/01 13:19:18;;;;;;;;;;;5.10;99.90;;;;;;5115651;28;19923;-45
2022/04/01 13:21:44;;;;;;;;;;;5.10;99.90;;;;;;5115493;28;19912;-47
2022/04/01 13:24:10;;;;;;;;;;;5.10;99.90;;;;;;5115098;28;20372;-47
2022/04/01 13:26:35;;;;;;;;;;;4.80;99.90;;;;;;5115527;28;19915;-44
2022/04/01 13:29:01;;;;;;;;;;;4.90;99.90;;;;;;5115450;28;20406;-47
2022/04/01 13:31:26;;;;;;;;;;;4.90;99.90;;;;;;5115049;28;19954;-46
2022/04/01 13:33:52;;;;;;;;;;;4.90;99.90;;;;;;5115388;28;20362;-45
2022/04/01 13:36:17;;;;;;;;;;;4.60;99.90;;;;;;5115561;28;20350;-48
2022/04/01 13:38:43;;;;;;;;;;;4.60;99.90;;;;;;5115788;28;19961;-46
2022/04/01 13:41:08;;;;;;;;;;;4.40;99.90;;;;;;5115241;28;19912;-46
2022/04/01 13:43:34;;;;;;;;;;;4.40;99.90;;;;;;5114108;28;19961;-46
2022/04/01 13:45:59;;;;;;;;;;;4.50;99.90;;;;;;5115468;28;20003;-48
2022/04/01 13:48:25;;;;;;;;;;;4.60;99.90;;;;;;5115203;28;19907;-46
2022/04/01 13:50:52;;;;;;;;;;;4.60;99.90;;;;;;5113449;28;20244;-45
2022/04/01 13:53:18;;;;;;;;;;;4.70;99.90;;;;;;5113953;28;19907;-46
2022/04/01 13:55:43;;;;;;;;;;;4.60;99.90;;;;;;5113930;28;20002;-43
2022/04/01 13:58:10;;;;;;;;;;;4.50;99.90;;;;;;5114819;28;19976;-49
2022/04/01 14:00:35;;;;;;;;;;;4.40;99.90;;;;;;5113745;28;20355;-45
2022/04/01 14:03:01;;;;;;;;;;;4.50;99.90;;;;;;5115332;28;20023;-44
2022/04/01 14:05:27;;;;;;;;;;;4.50;99.90;;;;;;5115074;28;19908;-44
2022/04/01 14:07:52;;;;;;;;;;;4.60;99.90;;;;;;5114705;28;20367;-46
2022/04/01 14:10:18;;;;;;;;;;;4.70;99.90;;;;;;5113414;28;19907;-46
2022/04/01 14:12:43;;;;;;;;;;;4.50;99.90;;;;;;5114633;28;19915;-47
2022/04/01 14:15:09;;;;;;;;;;;4.20;99.90;;;;;;5114481;28;19912;-49
2022/04/01 14:17:35;;;;;;;;;;;4.20;99.90;;;;;;5114480;28;20250;-44
2022/04/01 14:20:03;;;;;;;;;;;4.10;99.90;;;;;;5114539;28;19908;-47
2022/04/01 14:22:29;;;;;;;;;;;4.10;99.90;;;;;;5114758;28;19911;-44
2022/04/01 14:24:54;;;;;;;;;;;4.10;99.90;;;;;;5114381;28;20322;-47
2022/04/01 14:27:20;;;;;;;;;;;4.10;99.90;;;;;;5114396;28;19912;-44
2022/04/01 14:32:29;;;;;;;;;;;4.10;99.90;;;;;;5114390;28;20023;-47
2022/04/01 14:34:55;;;;;;;;;;;4.10;99.90;;;;;;5113873;28;20015;-48
2022/04/01 14:37:21;;;;;;;;;;;4.30;99.90;;;;;;5113011;28;19915;-47
2022/04/01 14:39:46;;;;;;;;;;;4.30;99.90;;;;;;5114130;28;19968;-44
2022/04/01 14:42:12;;;;;;;;;;;4.30;99.90;;;;;;5113811;28;19960;-48
2022/04/01 14:44:37;;;;;;;;;;;4.20;99.90;;;;;;5114273;28;19912;-45
2022/04/01 14:47:03;;;;;;;;;;;4.20;99.90;;;;;;5113892;28;19943;-46
2022/04/01 14:49:28;;;;;;;;;;;4.30;99.90;;;;;;5113978;28;19946;-48